createdAt,value
2022-12-15T00:00:23.364Z,871.63
2022-12-15T00:01:44.682Z,557.03
2022-12-15T00:03:06.104Z,557.00
2022-12-15T00:04:27.274Z,871.56
2022-12-15T00:05:49.939Z,1186.03
2022-12-15T00:07:11.445Z,1500.66
2022-12-15T00:08:32.675Z,1500.75
2022-12-15T00:09:53.806Z,1500.69
2022-12-15T00:11:15.517Z,1186.03
2022-12-15T00:12:36.531Z,1500.66
2022-12-15T00:13:57.770Z,1500.56
2022-12-15T00:15:19.244Z,1500.56
2022-12-15T00:16:40.251Z,1500.56
2022-12-15T00:18:01.609Z,1500.56
2022-12-15T00:19:22.850Z,1815.22
2022-12-15T00:20:44.215Z,1815.19
2022-12-15T00:22:05.454Z,1815.19
2022-12-15T00:23:31.293Z,1500.59
2022-12-15T00:24:52.738Z,1186.00
2022-12-15T00:26:14.104Z,1500.63
2022-12-15T00:27:35.346Z,1815.22
2022-12-15T00:28:56.712Z,2444.41
2022-12-15T00:30:18.073Z,2758.97
2022-12-15T00:31:39.581Z,2444.41
2022-12-15T00:33:01.272Z,2129.91
2022-12-15T00:34:22.277Z,1815.38
2022-12-15T00:35:43.404Z,1815.41
2022-12-15T00:37:05.004Z,1186.34
2022-12-15T00:38:32.241Z,871.88
2022-12-15T00:39:35.483Z,1186.41
2022-12-15T00:40:38.731Z,1500.94
2022-12-15T00:41:42.567Z,1500.97
2022-12-15T00:42:45.688Z,1186.47
2022-12-15T00:43:52.774Z,871.88
2022-12-15T00:44:56.736Z,243.00
2022-12-15T00:46:18.780Z,242.94
2022-12-15T00:47:22.057Z,243.00
2022-12-15T00:48:25.300Z,557.63
2022-12-15T00:49:48.943Z,243.19
2022-12-15T00:50:54.827Z,-71.25
2022-12-15T00:52:16.545Z,243.25
2022-12-15T00:53:39.227Z,-71.06
2022-12-15T00:55:00.950Z,243.56
2022-12-15T00:56:22.431Z,-70.84
2022-12-15T00:57:43.916Z,-385.25
2022-12-15T00:59:05.275Z,-699.78
2022-12-15T01:00:27.597Z,-699.56
2022-12-15T01:01:49.835Z,-384.97
2022-12-15T01:03:11.745Z,-70.59
2022-12-15T01:04:33.364Z,-70.66
2022-12-15T01:05:55.326Z,-385.00
2022-12-15T01:07:16.812Z,-1013.53
2022-12-15T01:08:38.412Z,-1328.00
2022-12-15T01:09:59.894Z,-1642.38
2022-12-15T01:11:21.619Z,-1327.81
2022-12-15T01:12:42.977Z,-1327.88
2022-12-15T01:14:04.340Z,-1327.63
2022-12-15T01:15:26.183Z,-1642.25
2022-12-15T01:16:47.665Z,-1642.25
2022-12-15T01:18:09.029Z,-1956.50
2022-12-15T01:19:30.205Z,-1956.66
2022-12-15T01:20:34.711Z,-2271.28
2022-12-15T01:21:37.592Z,-1956.72
2022-12-15T01:22:41.074Z,-2271.38
2022-12-15T01:23:43.597Z,-2271.53
2022-12-15T01:24:46.171Z,-1956.94
2022-12-15T01:25:51.455Z,-2271.44
2022-12-15T01:26:54.086Z,-2585.50
2022-12-15T01:27:56.970Z,-2585.50
2022-12-15T01:28:59.803Z,-2585.44
2022-12-15T01:30:02.731Z,-2585.63
2022-12-15T01:31:12.444Z,-2585.22
2022-12-15T01:32:15.213Z,-2270.69
2022-12-15T01:33:19.251Z,-2270.75
2022-12-15T01:34:22.885Z,-1955.81
2022-12-15T01:35:27.814Z,-1955.94
2022-12-15T01:36:30.453Z,-1955.88
2022-12-15T01:37:34.055Z,-2270.22
2022-12-15T01:38:36.575Z,-2270.06
2022-12-15T01:39:57.576Z,-2584.41
2022-12-15T01:41:05.140Z,-2898.78
2022-12-15T01:42:12.702Z,-2898.59
2022-12-15T01:43:22.542Z,-2898.44
2022-12-15T01:44:25.543Z,-2584.03
2022-12-15T01:45:30.943Z,-2898.31
2022-12-15T01:46:33.603Z,-3212.72
2022-12-15T01:47:36.461Z,-3527.06
2022-12-15T01:48:46.672Z,-3526.75
2022-12-15T01:49:49.904Z,-3527.06
2022-12-15T01:51:05.265Z,-3842.06
2022-12-15T01:52:10.063Z,-3527.56
2022-12-15T01:53:14.264Z,-3527.69
2022-12-15T01:54:28.547Z,-3841.91
2022-12-15T01:55:32.267Z,-3528.19
2022-12-15T01:56:39.108Z,-3528.25
2022-12-15T01:57:42.350Z,-3214.03
2022-12-15T01:58:49.328Z,-3528.53
2022-12-15T01:59:57.352Z,-3528.38
2022-12-15T02:01:02.121Z,-3213.88
2022-12-15T02:02:05.226Z,-2585.19
2022-12-15T02:03:09.641Z,-2585.22
2022-12-15T02:04:12.835Z,-1956.03
2022-12-15T02:05:15.481Z,-2270.38
2022-12-15T02:06:21.728Z,-2584.81
2022-12-15T02:07:24.478Z,-2584.47
2022-12-15T02:08:27.244Z,-2270.28
2022-12-15T02:09:30.716Z,-2584.72
2022-12-15T02:10:58.320Z,-2899.09
2022-12-15T02:12:28.079Z,-3213.31
2022-12-15T02:13:42.959Z,-3842.19
2022-12-15T02:14:58.682Z,-3213.47
2022-12-15T02:16:39.752Z,-3527.84
2022-12-15T02:18:04.216Z,-3527.94
2022-12-15T02:19:27.970Z,-3528.13
2022-12-15T02:20:38.777Z,-3213.38
2022-12-15T02:21:55.690Z,-3213.56
2022-12-15T02:23:32.662Z,-3213.56
2022-12-15T02:24:53.657Z,-2899.06
2022-12-15T02:26:24.258Z,-3213.19
2022-12-15T02:27:35.542Z,-2898.31
2022-12-15T02:29:09.986Z,-3212.53
2022-12-15T02:30:37.590Z,-3526.91
2022-12-15T02:32:04.915Z,-3841.50
2022-12-15T02:33:30.429Z,-3841.13
2022-12-15T02:34:42.514Z,-4155.59
2022-12-15T02:36:06.393Z,-3840.97
2022-12-15T02:37:20.924Z,-4155.31
2022-12-15T02:38:36.043Z,-3840.56
2022-12-15T02:39:39.162Z,-3840.72
2022-12-15T02:40:42.286Z,-4155.41
2022-12-15T02:41:47.684Z,-4155.53
2022-12-15T02:42:55.606Z,-4155.75
2022-12-15T02:43:59.336Z,-4155.81
2022-12-15T02:45:17.211Z,-4470.44
2022-12-15T02:46:42.171Z,-4470.34
2022-12-15T02:48:06.174Z,-4784.34
2022-12-15T02:49:27.539Z,-4469.94
2022-12-15T02:50:58.748Z,-4783.88
2022-12-15T02:52:25.144Z,-4469.53
2022-12-15T02:53:57.302Z,-4784.22
2022-12-15T02:55:24.547Z,-4784.22
2022-12-15T02:56:38.352Z,-4470.50
2022-12-15T02:58:01.752Z,-4784.94
2022-12-15T02:59:22.874Z,-4470.09
2022-12-15T03:00:26.003Z,-4469.69
2022-12-15T03:01:41.411Z,-4155.09
2022-12-15T03:02:52.132Z,-4154.53
2022-12-15T03:03:56.848Z,-4154.00
2022-12-15T03:05:00.921Z,-4468.16
2022-12-15T03:06:04.642Z,-5096.97
2022-12-15T03:07:10.644Z,-5097.16
2022-12-15T03:08:13.772Z,-4782.56
2022-12-15T03:09:17.009Z,-4468.09
2022-12-15T03:10:23.255Z,-4467.66
2022-12-15T03:11:26.857Z,-4467.34
2022-12-15T03:12:33.457Z,-4781.94
2022-12-15T03:13:36.941Z,-4781.91
2022-12-15T03:14:40.056Z,-4781.72
2022-12-15T03:15:43.298Z,-4782.13
2022-12-15T03:16:46.481Z,-4781.84
2022-12-15T03:17:49.668Z,-4781.94
2022-12-15T03:18:52.663Z,-4781.59
2022-12-15T03:19:55.666Z,-5096.66
2022-12-15T03:20:58.430Z,-5096.28
2022-12-15T03:22:01.429Z,-4781.84
2022-12-15T03:23:04.130Z,-4781.94
2022-12-15T03:24:07.077Z,-4782.31
2022-12-15T03:25:09.714Z,-5411.25
2022-12-15T03:26:12.408Z,-5411.25
2022-12-15T03:27:15.599Z,-5411.91
2022-12-15T03:28:18.723Z,-5412.16
2022-12-15T03:29:21.360Z,-5097.53
2022-12-15T03:30:24.007Z,-5097.41
2022-12-15T03:31:26.982Z,-5097.16
2022-12-15T03:32:30.053Z,-5097.28
2022-12-15T03:33:34.409Z,-5097.41
2022-12-15T03:34:37.330Z,-5097.03
2022-12-15T03:35:40.017Z,-5097.09
2022-12-15T03:36:42.537Z,-5097.34
2022-12-15T03:37:45.062Z,-5411.50
2022-12-15T03:38:47.458Z,-5411.50
2022-12-15T03:39:49.980Z,-5725.69
2022-12-15T03:40:52.502Z,-5725.53
2022-12-15T03:41:55.018Z,-5725.94
2022-12-15T03:42:58.861Z,-5725.75
2022-12-15T03:44:01.824Z,-5411.31
2022-12-15T03:45:05.427Z,-5725.53
2022-12-15T03:46:08.027Z,-5411.19
2022-12-15T03:47:10.503Z,-5724.72
2022-12-15T03:48:13.274Z,-6039.28
2022-12-15T03:49:15.876Z,-6039.00
2022-12-15T03:50:21.427Z,-6039.16
2022-12-15T03:51:24.186Z,-6353.28
2022-12-15T03:52:26.707Z,-6354.00
2022-12-15T03:53:29.588Z,-6354.31
2022-12-15T03:54:32.349Z,-6354.44
2022-12-15T03:55:35.466Z,-6353.88
2022-12-15T03:56:38.112Z,-6039.38
2022-12-15T03:57:40.627Z,-6668.31
2022-12-15T03:58:43.271Z,-7297.44
2022-12-15T03:59:45.909Z,-7612.78
2022-12-15T04:00:48.911Z,-7927.69
2022-12-15T04:01:51.645Z,-7612.03
2022-12-15T04:02:54.713Z,-7611.78
2022-12-15T04:04:01.253Z,-7296.47
2022-12-15T04:05:04.418Z,-6667.41
2022-12-15T04:06:07.157Z,-6982.34
2022-12-15T04:07:09.682Z,-6667.13
2022-12-15T04:08:13.053Z,-6666.66
2022-12-15T04:09:15.561Z,-6352.13
2022-12-15T04:10:18.316Z,-6980.47
2022-12-15T04:11:20.840Z,-6666.44
2022-12-15T04:12:23.360Z,-6666.66
2022-12-15T04:13:25.882Z,-7295.50
2022-12-15T04:14:28.404Z,-7610.63
2022-12-15T04:15:30.925Z,-7610.72
2022-12-15T04:16:33.509Z,-7610.78
2022-12-15T04:17:36.329Z,-7296.47
2022-12-15T04:18:38.972Z,-7295.50
2022-12-15T04:20:00.097Z,-7610.47
2022-12-15T04:21:02.610Z,-7610.13
2022-12-15T04:22:05.145Z,-7924.41
2022-12-15T04:23:08.103Z,-7924.94
2022-12-15T04:24:29.378Z,-7610.47
2022-12-15T04:25:50.615Z,-7295.50
2022-12-15T04:27:11.866Z,-7295.09
2022-12-15T04:28:33.584Z,-7608.97
2022-12-15T04:29:54.820Z,-8238.91
2022-12-15T04:31:27.184Z,-8552.66
2022-12-15T04:32:50.013Z,-7923.81
2022-12-15T04:34:15.108Z,-8552.13
2022-12-15T04:35:36.229Z,-7922.97
2022-12-15T04:36:59.401Z,-8237.66
2022-12-15T04:38:20.762Z,-7923.22
2022-12-15T04:39:42.597Z,-7922.38
2022-12-15T04:41:03.719Z,-7923.38
2022-12-15T04:42:25.083Z,-8237.66
2022-12-15T04:43:46.568Z,-8237.50
2022-12-15T04:45:08.883Z,-8552.47
2022-12-15T04:46:30.434Z,-8553.22
2022-12-15T04:47:51.746Z,-8553.03
2022-12-15T04:49:13.453Z,-7923.91
2022-12-15T04:50:35.175Z,-8238.19
2022-12-15T04:51:56.775Z,-8552.66
2022-12-15T04:53:33.967Z,-8552.84
2022-12-15T04:54:55.581Z,-7923.38
2022-12-15T04:56:18.830Z,-7608.47
2022-12-15T04:57:40.593Z,-7608.13
2022-12-15T04:59:02.189Z,-7924.06
2022-12-15T05:00:24.991Z,-8238.00
2022-12-15T05:01:46.694Z,-7923.47
2022-12-15T05:03:11.262Z,-7923.91
2022-12-15T05:04:35.232Z,-7609.13
2022-12-15T05:05:57.052Z,-7608.47
2022-12-15T05:07:18.759Z,-7608.78
2022-12-15T05:08:40.485Z,-7608.28
2022-12-15T05:10:03.485Z,-7608.53
2022-12-15T05:11:25.371Z,-7608.38
2022-12-15T05:12:47.212Z,-7607.97
2022-12-15T05:14:08.578Z,-7294.06
2022-12-15T05:15:30.454Z,-7608.38
2022-12-15T05:16:52.060Z,-7293.09
2022-12-15T05:18:13.860Z,-7293.34
2022-12-15T05:19:35.220Z,-7607.88
2022-12-15T05:20:56.825Z,-7608.63
2022-12-15T05:22:18.186Z,-7608.97
2022-12-15T05:23:39.548Z,-7922.78
2022-12-15T05:25:00.911Z,-7293.91
2022-12-15T05:26:22.151Z,-7608.13
2022-12-15T05:27:43.632Z,-7608.53
2022-12-15T05:29:04.876Z,-7608.13
2022-12-15T05:30:26.720Z,-7922.38
2022-12-15T05:31:48.199Z,-8237.03
2022-12-15T05:32:50.604Z,-8236.59
2022-12-15T05:33:58.248Z,-8551.84
2022-12-15T05:35:03.693Z,-8551.31
2022-12-15T05:36:06.686Z,-8866.22
2022-12-15T05:37:09.257Z,-8866.31
2022-12-15T05:38:11.777Z,-9180.41
2022-12-15T05:39:14.655Z,-8867.06
2022-12-15T05:40:17.175Z,-9181.09
2022-12-15T05:41:21.828Z,-9181.47
2022-12-15T05:42:24.497Z,-9181.28
2022-12-15T05:43:28.416Z,-9181.66
2022-12-15T05:44:31.459Z,-8867.16
2022-12-15T05:45:33.943Z,-8867.44
2022-12-15T05:46:37.000Z,-9182.13
2022-12-15T05:47:39.623Z,-9496.78
2022-12-15T05:48:42.628Z,-9497.16
2022-12-15T05:49:45.142Z,-9182.13
2022-12-15T05:50:47.871Z,-9181.66
2022-12-15T05:51:52.431Z,-9182.03
2022-12-15T05:52:55.824Z,-9183.19
2022-12-15T05:53:58.347Z,-9182.81
2022-12-15T05:55:00.865Z,-9182.03
2022-12-15T05:56:05.040Z,-9496.47
2022-12-15T05:57:07.709Z,-9182.13
2022-12-15T05:58:10.234Z,-8867.34
2022-12-15T05:59:13.471Z,-9181.47
2022-12-15T06:00:16.229Z,-8867.34
2022-12-15T06:01:19.638Z,-9496.56
2022-12-15T06:02:22.253Z,-9497.56
2022-12-15T06:03:24.751Z,-9812.34
2022-12-15T06:04:27.432Z,-9812.13
2022-12-15T06:05:30.044Z,-9812.94
2022-12-15T06:06:32.915Z,-9811.94
2022-12-15T06:07:36.399Z,-9812.34
2022-12-15T06:08:41.317Z,-10440.16
2022-12-15T06:09:43.956Z,-10441.13
2022-12-15T06:10:55.236Z,-10441.75
2022-12-15T06:11:59.081Z,-10126.19
2022-12-15T06:13:01.962Z,-10127.13
2022-12-15T06:14:04.602Z,-9496.97
2022-12-15T06:15:07.598Z,-9496.97
2022-12-15T06:16:15.810Z,-9811.53
2022-12-15T06:17:18.406Z,-9811.31
2022-12-15T06:18:21.042Z,-10440.78
2022-12-15T06:19:23.690Z,-10441.13
2022-12-15T06:20:26.202Z,-10441.75
2022-12-15T06:21:37.727Z,-10757.47
2022-12-15T06:22:40.262Z,-10756.94
2022-12-15T06:23:43.518Z,-10757.47
2022-12-15T06:24:46.777Z,-10757.47
2022-12-15T06:25:49.370Z,-10757.91
2022-12-15T06:26:52.611Z,-10758.34
2022-12-15T06:28:00.029Z,-11073.03
2022-12-15T06:29:07.042Z,-11072.59
2022-12-15T06:30:10.022Z,-11073.16
2022-12-15T06:31:13.914Z,-11074.16
2022-12-15T06:32:16.508Z,-10758.34
2022-12-15T06:33:20.100Z,-10758.25
2022-12-15T06:34:22.624Z,-10128.69
2022-12-15T06:35:25.145Z,-10127.97
2022-12-15T06:36:28.773Z,-10128.59
2022-12-15T06:37:31.387Z,-10128.38
2022-12-15T06:38:34.879Z,-10442.81
2022-12-15T06:39:37.511Z,-10442.41
2022-12-15T06:40:40.754Z,-10443.25
2022-12-15T06:41:43.756Z,-10757.25
2022-12-15T06:42:46.395Z,-10758.34
2022-12-15T06:43:50.958Z,-10758.56
2022-12-15T06:44:53.841Z,-10758.34
2022-12-15T06:45:57.084Z,-11073.03
2022-12-15T06:46:59.934Z,-10759.13
2022-12-15T06:48:02.964Z,-11074.16
2022-12-15T06:49:05.845Z,-11073.03
2022-12-15T06:50:09.091Z,-11387.97
2022-12-15T06:51:17.253Z,-11389.25
2022-12-15T06:52:20.731Z,-11389.69
2022-12-15T06:53:25.177Z,-11389.81
2022-12-15T06:54:28.535Z,-11389.81
2022-12-15T06:55:31.665Z,-11390.03
2022-12-15T06:56:39.226Z,-11390.28
2022-12-15T06:57:42.343Z,-11075.94
2022-12-15T06:58:45.464Z,-11390.37
2022-12-15T06:59:48.584Z,-11076.41
2022-12-15T07:00:51.704Z,-11075.50
2022-12-15T07:01:54.956Z,-10760.75
2022-12-15T07:02:58.349Z,-10760.84
2022-12-15T07:04:03.426Z,-11075.50
2022-12-15T07:05:06.833Z,-11076.06
2022-12-15T07:06:12.118Z,-11075.28
2022-12-15T07:07:15.237Z,-11076.16
2022-12-15T07:08:18.360Z,-11075.06
2022-12-15T07:09:21.598Z,-11076.06
2022-12-15T07:10:24.844Z,-11391.41
2022-12-15T07:11:28.084Z,-11392.31
2022-12-15T07:12:32.404Z,-11707.97
2022-12-15T07:13:35.540Z,-11707.97
2022-12-15T07:14:38.887Z,-11708.09
2022-12-15T07:15:42.211Z,-11709.25
2022-12-15T07:16:46.675Z,-12024.41
2022-12-15T07:17:51.382Z,-12026.31
2022-12-15T07:18:54.735Z,-12027.03
2022-12-15T07:19:57.859Z,-12027.97
2022-12-15T07:21:07.279Z,-12343.09
2022-12-15T07:22:10.460Z,-12343.22
2022-12-15T07:23:13.948Z,-12344.31
2022-12-15T07:24:17.186Z,-12345.78
2022-12-15T07:25:21.024Z,-12345.66
2022-12-15T07:26:24.632Z,-12347.00
2022-12-15T07:27:27.755Z,-12347.00
2022-12-15T07:28:31.322Z,-12662.47
2022-12-15T07:29:34.593Z,-12662.72
2022-12-15T07:30:39.972Z,-12664.47
2022-12-15T07:31:43.077Z,-12665.59
2022-12-15T07:32:49.917Z,-12350.53
2022-12-15T07:33:54.876Z,-12665.97
2022-12-15T07:34:57.641Z,-12666.97
2022-12-15T07:36:01.413Z,-12668.47
2022-12-15T07:37:04.061Z,-12668.47
2022-12-15T07:38:07.777Z,-12670.06
2022-12-15T07:39:10.852Z,-12670.44
2022-12-15T07:40:13.782Z,-12986.63
2022-12-15T07:41:16.296Z,-12987.91
2022-12-15T07:42:19.659Z,-12673.44
2022-12-15T07:43:22.915Z,-12674.44
2022-12-15T07:44:25.781Z,-12674.44
2022-12-15T07:45:28.418Z,-12990.81
2022-12-15T07:46:31.008Z,-12991.22
2022-12-15T07:47:33.940Z,-12677.06
2022-12-15T07:48:36.469Z,-12678.19
2022-12-15T07:49:39.105Z,-12362.75
2022-12-15T07:50:41.629Z,-12363.50
2022-12-15T07:51:44.864Z,-12363.25
2022-12-15T07:52:47.383Z,-12049.38
2022-12-15T07:53:51.220Z,-12050.69
2022-12-15T07:54:53.955Z,-12050.94
2022-12-15T07:56:09.655Z,-12052.59
2022-12-15T07:57:12.828Z,-12052.13
2022-12-15T07:58:15.347Z,-11738.16
2022-12-15T07:59:17.889Z,-12054.50
2022-12-15T08:00:20.750Z,-12054.50
2022-12-15T08:01:24.842Z,-11740.13
2022-12-15T08:02:27.598Z,-12372.28
2022-12-15T08:03:30.906Z,-12688.78
2022-12-15T08:04:33.730Z,-12690.16
2022-12-15T08:05:36.353Z,-13007.13
2022-12-15T08:06:38.874Z,-12692.41
2022-12-15T08:07:41.395Z,-13009.94
2022-12-15T08:08:50.058Z,-12379.38
2022-12-15T08:09:53.995Z,-12064.19
2022-12-15T08:10:56.549Z,-11434.63
2022-12-15T08:11:59.041Z,-11435.09
2022-12-15T08:13:01.558Z,-11121.19
2022-12-15T08:14:07.764Z,-10490.13
2022-12-15T08:15:12.742Z,-10490.22
2022-12-15T08:16:15.389Z,-9859.56
2022-12-15T08:17:17.887Z,-9860.38
2022-12-15T08:18:20.520Z,-9860.16
2022-12-15T08:19:23.041Z,-9862.00
2022-12-15T08:20:25.837Z,-9863.91
2022-12-15T08:21:28.449Z,-9549.50
2022-12-15T08:22:30.963Z,-9550.28
2022-12-15T08:23:34.128Z,-9551.88
2022-12-15T08:24:36.851Z,-8921.41
2022-12-15T08:25:39.371Z,-9239.34
2022-12-15T08:26:43.333Z,-9241.66
2022-12-15T08:27:45.847Z,-8927.56
2022-12-15T08:28:48.281Z,-8613.50
2022-12-15T08:29:52.251Z,-7982.72
2022-12-15T08:30:55.214Z,-7668.47
2022-12-15T08:31:57.934Z,-7353.56
2022-12-15T08:33:01.264Z,-6406.06
2022-12-15T08:34:05.658Z,-5458.22
2022-12-15T08:35:25.346Z,-4826.56
2022-12-15T08:36:32.183Z,-3562.19
2022-12-15T08:37:34.947Z,-3246.56
2022-12-15T08:38:39.029Z,-3247.31
2022-12-15T08:39:41.670Z,-2932.00
2022-12-15T08:40:44.199Z,-3249.13
2022-12-15T08:41:46.833Z,-3567.91
2022-12-15T08:42:49.355Z,-2619.91
2022-12-15T08:43:52.124Z,-1671.56
2022-12-15T08:44:54.887Z,-2623.72
2022-12-15T08:45:57.945Z,-724.06
2022-12-15T08:47:00.641Z,2127.91
2022-12-15T08:48:03.401Z,3713.00
2022-12-15T08:49:06.403Z,5298.75
2022-12-15T08:50:09.549Z,6250.91
2022-12-15T08:51:12.656Z,7837.47
2022-12-15T08:52:15.649Z,10692.47
2022-12-15T08:53:33.852Z,11327.41
2022-12-15T08:54:36.894Z,13549.19
2022-12-15T08:55:40.974Z,14499.66
2022-12-15T08:56:44.096Z,15450.34
2022-12-15T08:57:47.224Z,14815.44
2022-12-15T08:58:55.503Z,15133.34
2022-12-15T08:59:58.622Z,14498.53
2022-12-15T09:01:03.618Z,13547.59
2022-12-15T09:02:07.494Z,13230.47
2022-12-15T09:03:10.750Z,9426.13
2022-12-15T09:04:13.912Z,8795.06
2022-12-15T09:05:17.111Z,7527.88
2022-12-15T09:06:22.752Z,6260.00
2022-12-15T09:07:25.874Z,10399.94
2022-12-15T09:08:31.275Z,16780.81
2022-12-15T09:09:34.396Z,18071.19
2022-12-15T09:10:42.080Z,29919.91
2022-12-15T09:11:45.325Z,36995.00
2022-12-15T09:12:48.446Z,45706.25
2022-12-15T09:13:51.569Z,70573.06
2022-12-15T09:14:54.808Z,87808.25
2022-12-15T09:16:10.425Z,107751.19
2022-12-15T09:17:14.208Z,144677.06
2022-12-15T09:18:17.612Z,145573.66
2022-12-15T09:19:20.974Z,145616.97
2022-12-15T09:20:24.410Z,145721.63
2022-12-15T09:21:30.217Z,145690.34
2022-12-15T09:22:33.460Z,145609.72
2022-12-15T09:23:37.282Z,145542.38
2022-12-15T09:24:41.025Z,145501.50
2022-12-15T09:25:44.982Z,145445.00
2022-12-15T09:26:48.226Z,145429.38
2022-12-15T09:27:51.467Z,145400.53
2022-12-15T09:28:58.072Z,145413.72
2022-12-15T09:30:01.553Z,145499.09
2022-12-15T09:31:05.053Z,145624.19
2022-12-15T09:32:13.791Z,145746.91
2022-12-15T09:33:17.053Z,145857.63
2022-12-15T09:34:19.917Z,145896.16
2022-12-15T09:35:22.799Z,145949.16
2022-12-15T09:36:26.521Z,145881.72
2022-12-15T09:37:31.564Z,145937.06
2022-12-15T09:38:36.245Z,146022.59
2022-12-15T09:39:39.607Z,146081.63
2022-12-15T09:40:42.490Z,146228.59
2022-12-15T09:41:55.458Z,146149.09
2022-12-15T09:43:25.594Z,146368.47
2022-12-15T09:44:23.221Z,146310.59
2022-12-15T09:45:34.621Z,146240.69
2022-12-15T09:46:55.940Z,146334.72
2022-12-15T09:48:07.340Z,146291.28
2022-12-15T09:49:23.665Z,146346.75
2022-12-15T09:50:39.265Z,146401.03
2022-12-15T09:51:52.225Z,146390.16
2022-12-15T09:53:00.445Z,146286.47
2022-12-15T09:54:04.379Z,146386.53
2022-12-15T09:55:21.180Z,146478.19
2022-12-15T09:56:40.954Z,146515.59
2022-12-15T09:57:53.077Z,146491.44
2022-12-15T09:59:23.079Z,146531.34
2022-12-15T10:00:34.418Z,146428.78
2022-12-15T10:01:56.263Z,146560.28
2022-12-15T10:02:58.946Z,146559.09
2022-12-15T10:04:15.636Z,146664.06
2022-12-15T10:06:06.155Z,146650.75
2022-12-15T10:07:06.570Z,146706.28
2022-12-15T10:08:09.559Z,146864.44
2022-12-15T10:09:29.716Z,146933.28
2022-12-15T10:10:47.119Z,146973.13
2022-12-15T10:12:16.177Z,146930.88
2022-12-15T10:13:31.081Z,146732.84
2022-12-15T10:14:49.915Z,146848.72
2022-12-15T10:16:03.364Z,146689.41
2022-12-15T10:17:43.401Z,146715.94
2022-12-15T10:18:50.428Z,146551.81
2022-12-15T10:20:17.361Z,146598.91
2022-12-15T10:21:28.164Z,146662.84
2022-12-15T10:22:34.308Z,146678.53
2022-12-15T10:23:37.605Z,146662.84
2022-12-15T10:26:34.427Z,146631.47
2022-12-15T10:28:14.611Z,146802.88
2022-12-15T10:29:21.569Z,146777.50
2022-12-15T10:30:24.753Z,146757.00
2022-12-15T10:31:41.252Z,146793.22
2022-12-15T10:33:02.146Z,146976.75
2022-12-15T10:34:33.382Z,146977.97
2022-12-15T10:35:37.062Z,146934.50
2022-12-15T10:36:55.659Z,147052.91
2022-12-15T10:38:00.462Z,147052.91
2022-12-15T10:39:03.468Z,146837.88
2022-12-15T10:40:06.585Z,147090.34
2022-12-15T10:41:12.230Z,147210.06
2022-12-15T10:42:22.909Z,147195.53
2022-12-15T10:43:46.865Z,147340.66
2022-12-15T10:44:57.835Z,147310.41
2022-12-15T10:46:09.343Z,147288.63
2022-12-15T10:47:37.562Z,147295.88
2022-12-15T10:50:28.085Z,147382.97
2022-12-15T10:51:37.367Z,147629.78
2022-12-15T10:52:40.206Z,147649.19
2022-12-15T10:53:50.688Z,147651.59
2022-12-15T10:54:55.328Z,147695.16
2022-12-15T10:56:04.091Z,147652.81
2022-12-15T10:57:31.826Z,147767.84
2022-12-15T10:58:47.449Z,147554.78
2022-12-15T10:59:53.899Z,147583.81
2022-12-15T11:01:19.094Z,147741.19
2022-12-15T11:02:25.449Z,147565.66
2022-12-15T11:03:29.561Z,147626.16
2022-12-15T11:04:34.161Z,147736.34
2022-12-15T11:05:37.347Z,147697.63
2022-12-15T11:06:42.868Z,147798.09
2022-12-15T11:07:52.112Z,147799.31
2022-12-15T11:08:58.115Z,147781.13
2022-12-15T11:10:02.917Z,147869.56
2022-12-15T11:11:47.917Z,147875.59
2022-12-15T11:13:22.719Z,147920.41
2022-12-15T11:14:38.928Z,147709.72
2022-12-15T11:15:51.857Z,147704.88
2022-12-15T11:16:59.445Z,147470.06
2022-12-15T11:18:16.487Z,147501.47
2022-12-15T11:19:56.557Z,147583.81
2022-12-15T11:21:08.212Z,147407.16
2022-12-15T11:22:23.093Z,147480.94
2022-12-15T11:23:46.600Z,147455.53
2022-12-15T11:24:58.740Z,147486.97
2022-12-15T11:26:07.579Z,147637.09
2022-12-15T11:27:39.422Z,147816.25
2022-12-15T11:28:53.761Z,147909.50
2022-12-15T11:30:11.112Z,147840.47
2022-12-15T11:31:23.107Z,147944.69
2022-12-15T11:32:29.833Z,147867.13
2022-12-15T11:33:32.861Z,147767.84
2022-12-15T11:34:48.440Z,147867.13
2022-12-15T11:36:28.645Z,147973.75
2022-12-15T11:38:03.679Z,148058.59
2022-12-15T11:39:23.140Z,147828.38
2022-12-15T11:40:40.055Z,147965.28
2022-12-15T11:42:08.616Z,148096.16
2022-12-15T11:44:00.963Z,148208.84
2022-12-15T11:45:30.217Z,148144.63
2022-12-15T11:46:55.822Z,148075.53
2022-12-15T11:48:14.660Z,148177.34
2022-12-15T11:49:40.911Z,148107.06
2022-12-15T11:51:07.184Z,148182.19
2022-12-15T11:52:48.985Z,147962.88
2022-12-15T11:54:03.503Z,148086.44
2022-12-15T11:55:32.074Z,148005.25
2022-12-15T11:57:13.584Z,148107.06
2022-12-15T11:58:40.674Z,148179.75
2022-12-15T12:00:06.474Z,148048.88
2022-12-15T12:01:23.979Z,148126.47
2022-12-15T12:02:32.488Z,148335.00
2022-12-15T12:03:37.708Z,148301.06
2022-12-15T12:05:09.483Z,148165.22
2022-12-15T12:06:24.244Z,148252.53
2022-12-15T12:07:44.077Z,148197.97
2022-12-15T12:08:59.311Z,148065.84
2022-12-15T12:10:13.351Z,148208.84
2022-12-15T12:11:57.283Z,148201.59
2022-12-15T12:13:20.793Z,148335.00
2022-12-15T12:14:50.588Z,148381.09
2022-12-15T12:15:56.085Z,148475.69
2022-12-15T12:17:12.159Z,148257.38
2022-12-15T12:18:26.437Z,148070.69
2022-12-15T12:19:37.764Z,148114.31
2022-12-15T12:20:47.083Z,148073.13
2022-12-15T12:21:53.921Z,148094.94
2022-12-15T12:23:23.964Z,148014.94
2022-12-15T12:24:38.563Z,148162.81
2022-12-15T12:26:02.572Z,148160.41
2022-12-15T12:27:09.883Z,148279.22
2022-12-15T12:28:27.790Z,148308.31
2022-12-15T12:29:40.007Z,148183.41
2022-12-15T12:30:50.521Z,148211.28
2022-12-15T12:32:15.541Z,148111.88
2022-12-15T12:33:44.810Z,147767.84
2022-12-15T12:35:31.113Z,147640.72
2022-12-15T12:36:28.979Z,147821.09
2022-12-15T12:37:43.279Z,148030.72
2022-12-15T12:38:51.133Z,148132.50
2022-12-15T12:40:00.180Z,148130.09
2022-12-15T12:41:07.638Z,148126.47
2022-12-15T12:42:20.465Z,148136.16
2022-12-15T12:43:39.666Z,148208.84
2022-12-15T12:44:42.315Z,148157.97
2022-12-15T12:45:59.720Z,148010.09
2022-12-15T12:47:23.235Z,147765.41
2022-12-15T12:48:40.513Z,147675.81
2022-12-15T12:49:50.481Z,147822.28
2022-12-15T12:51:10.880Z,147430.09
2022-12-15T12:52:30.602Z,147439.81
2022-12-15T12:53:34.854Z,147236.63
2022-12-15T12:54:37.889Z,147283.81
2022-12-15T12:55:42.814Z,147199.16
2022-12-15T12:56:48.626Z,147100.00
2022-12-15T12:57:52.415Z,147229.38
2022-12-15T12:58:55.291Z,147330.94
2022-12-15T13:00:21.561Z,147407.16
2022-12-15T13:01:32.645Z,147366.00
2022-12-15T13:02:38.349Z,147382.97
2022-12-15T13:03:44.022Z,147389.00
2022-12-15T13:05:21.830Z,147375.72
2022-12-15T13:06:36.824Z,147479.72
2022-12-15T13:07:41.269Z,147312.81
2022-12-15T13:08:51.410Z,147370.84
2022-12-15T13:10:22.669Z,147486.97
2022-12-15T13:11:56.272Z,147450.69
2022-12-15T13:13:20.156Z,147379.34
2022-12-15T13:14:36.362Z,147346.69
2022-12-15T13:15:45.360Z,147350.31
2022-12-15T13:17:26.711Z,147249.94
2022-12-15T13:18:50.404Z,147200.38
2022-12-15T13:20:00.005Z,147242.72
2022-12-15T13:21:35.189Z,147107.28
2022-12-15T13:22:40.571Z,146971.94
2022-12-15T13:23:43.810Z,147119.41
2022-12-15T13:24:51.252Z,147096.38
2022-12-15T13:26:12.745Z,147126.66
2022-12-15T13:27:16.700Z,147097.59
2022-12-15T13:28:37.101Z,147179.84
2022-12-15T13:30:03.744Z,147158.06
2022-12-15T13:31:22.010Z,147087.94
2022-12-15T13:33:17.908Z,147066.16
2022-12-15T13:34:24.752Z,146836.66
2022-12-15T13:35:33.584Z,146894.66
2022-12-15T13:36:42.194Z,146859.63
2022-12-15T13:37:56.192Z,146842.69
2022-12-15T13:38:59.199Z,146771.47
2022-12-15T13:40:01.959Z,146690.63
2022-12-15T13:41:22.774Z,146670.09
2022-12-15T13:42:38.413Z,146614.56
2022-12-15T13:43:49.174Z,146696.66
2022-12-15T13:44:57.646Z,146754.59
2022-12-15T13:46:09.628Z,146677.31
2022-12-15T13:47:28.256Z,146575.97